Amis Wisdom Vi — 3FVW4 — position and weather

sailwx.info

Track history (hours):
 
Tides and Currents Weather Stations Pressure Air Temp Water Temp Dewpoint Dewpoint Depression Visibility Wind Speed Wind Dir Waves Ship Positions

Amis Wisdom Vi

Last reported at 2018-Feb-08 02:30 UTC. Time now 2018-Feb-18 18:21 UTC.
Position N 01°16' E 103°58'.
Warning: this ship's position is 10 days out of date.

Length 200 m; draft 6.6 m.

Type: Cargo ship. MMSI: 371897000.

Date/timePositionNaut miles runAvg speedWind from/ knotsBaromVisibWave heightAir tempDewpointWater temp
2018-Feb-08 02:30N 01°16' E 103°58'1 0.7
2018-Feb-08 01:30N 01°16' E 103°59'1 2.7
2018-Feb-08 01:00N 01°16' E 103°60'1 2.9
2018-Feb-08 00:30N 01°16' E 104°01'2 3.3
2018-Feb-08 00:00N 01°16' E 104°03'1 2.3
2018-Feb-07 23:30N 01°15' E 104°03'1 1.6
2018-Feb-07 23:00N 01°15' E 104°02'3 5.5
2018-Feb-07 22:30N 01°14' E 103°59'3 5.8
2018-Feb-07 22:00N 01°13' E 103°56'3 7.0
2018-Feb-07 21:31N 01°12' E 103°53'  
Track history (hours):
 
Tides and Currents Weather Stations Pressure Air Temp Water Temp Dewpoint Dewpoint Depression Visibility Wind Speed Wind Dir Waves Ship Positions

Amis Wisdom Vi

Last reported at 2018-Feb-08 02:30 UTC. Time now 2018-Feb-18 18:21 UTC.
Position N 01°16' E 103°58'.
Warning: this ship's position is 10 days out of date.

Length 200 m; draft 6.6 m.

Type: Cargo ship. MMSI: 371897000.

Date/timePositionNaut miles runAvg speedWind from/ knotsBaromVisibWave heightAir tempDewpointWater temp
2018-Feb-08 02:30N 01°16' E 103°58'1 0.7
2018-Feb-08 01:30N 01°16' E 103°59'1 2.7
2018-Feb-08 01:00N 01°16' E 103°60'1 2.9
2018-Feb-08 00:30N 01°16' E 104°01'2 3.3
2018-Feb-08 00:00N 01°16' E 104°03'1 2.3
2018-Feb-07 23:30N 01°15' E 104°03'1 1.6
2018-Feb-07 23:00N 01°15' E 104°02'3 5.5
2018-Feb-07 22:30N 01°14' E 103°59'3 5.8
2018-Feb-07 22:00N 01°13' E 103°56'3 7.0
2018-Feb-07 21:31N 01°12' E 103°53'  

Dump ship's entire track history